sensor_id;sensor_type;location;lat;lon;timestamp;P1;durP1;ratioP1;P2;durP2;ratioP2
39300;SDS011;25019;42.626;23.380;2023-05-16T00:01:34;24.13;;;15.43;;
39300;SDS011;25019;42.626;23.380;2023-05-16T00:03:59;19.40;;;15.77;;
39300;SDS011;25019;42.626;23.380;2023-05-16T00:06:25;16.53;;;14.83;;
39300;SDS011;25019;42.626;23.380;2023-05-16T00:08:51;17.97;;;15.00;;
39300;SDS011;25019;42.626;23.380;2023-05-16T00:11:17;16.60;;;14.90;;
39300;SDS011;25019;42.626;23.380;2023-05-16T00:13:42;16.27;;;14.57;;
39300;SDS011;25019;42.626;23.380;2023-05-16T00:16:08;21.53;;;15.23;;
39300;SDS011;25019;42.626;23.380;2023-05-16T00:18:34;17.40;;;14.53;;
39300;SDS011;25019;42.626;23.380;2023-05-16T00:21:03;16.30;;;14.27;;
39300;SDS011;25019;42.626;23.380;2023-05-16T00:23:29;17.57;;;14.97;;
39300;SDS011;25019;42.626;23.380;2023-05-16T00:25:55;18.60;;;15.57;;
39300;SDS011;25019;42.626;23.380;2023-05-16T00:28:21;19.30;;;15.33;;
39300;SDS011;25019;42.626;23.380;2023-05-16T00:30:47;16.83;;;14.53;;
39300;SDS011;25019;42.626;23.380;2023-05-16T00:33:14;16.30;;;14.53;;
39300;SDS011;25019;42.626;23.380;2023-05-16T00:35:40;17.53;;;15.67;;
39300;SDS011;25019;42.626;23.380;2023-05-16T00:38:06;18.77;;;15.53;;
39300;SDS011;25019;42.626;23.380;2023-05-16T00:40:31;16.63;;;14.93;;
39300;SDS011;25019;42.626;23.380;2023-05-16T00:42:57;16.87;;;15.03;;
39300;SDS011;25019;42.626;23.380;2023-05-16T00:45:25;17.57;;;15.60;;
39300;SDS011;25019;42.626;23.380;2023-05-16T00:47:51;19.87;;;15.10;;
39300;SDS011;25019;42.626;23.380;2023-05-16T00:50:17;15.47;;;13.87;;
39300;SDS011;25019;42.626;23.380;2023-05-16T00:52:43;17.33;;;15.30;;
39300;SDS011;25019;42.626;23.380;2023-05-16T00:55:09;17.30;;;14.93;;
39300;SDS011;25019;42.626;23.380;2023-05-16T00:57:36;18.00;;;16.10;;
39300;SDS011;25019;42.626;23.380;2023-05-16T01:00:06;21.30;;;15.67;;
39300;SDS011;25019;42.626;23.380;2023-05-16T01:02:36;17.40;;;14.00;;
39300;SDS011;25019;42.626;23.380;2023-05-16T01:05:03;16.77;;;14.93;;
39300;SDS011;25019;42.626;23.380;2023-05-16T01:07:33;16.60;;;14.90;;
39300;SDS011;25019;42.626;23.380;2023-05-16T01:09:59;16.50;;;14.67;;
39300;SDS011;25019;42.626;23.380;2023-05-16T01:15:08;16.97;;;14.90;;
39300;SDS011;25019;42.626;23.380;2023-05-16T01:17:57;19.07;;;15.23;;
39300;SDS011;25019;42.626;23.380;2023-05-16T01:29:05;16.80;;;15.00;;
39300;SDS011;25019;42.626;23.380;2023-05-16T01:31:31;18.10;;;15.87;;
39300;SDS011;25019;42.626;23.380;2023-05-16T01:33:57;16.87;;;15.17;;
39300;SDS011;25019;42.626;23.380;2023-05-16T01:36:35;20.53;;;16.60;;
39300;SDS011;25019;42.626;23.380;2023-05-16T01:44:34;18.57;;;15.23;;
39300;SDS011;25019;42.626;23.380;2023-05-16T01:47:15;18.93;;;16.67;;
39300;SDS011;25019;42.626;23.380;2023-05-16T01:49:57;17.77;;;14.43;;
39300;SDS011;25019;42.626;23.380;2023-05-16T01:52:31;18.77;;;14.47;;
39300;SDS011;25019;42.626;23.380;2023-05-16T01:55:03;18.40;;;15.53;;
39300;SDS011;25019;42.626;23.380;2023-05-16T01:57:34;18.93;;;15.30;;
39300;SDS011;25019;42.626;23.380;2023-05-16T02:00:00;19.43;;;15.10;;
39300;SDS011;25019;42.626;23.380;2023-05-16T02:02:26;17.37;;;14.93;;
39300;SDS011;25019;42.626;23.380;2023-05-16T02:04:52;17.30;;;15.00;;
39300;SDS011;25019;42.626;23.380;2023-05-16T02:22:19;16.23;;;14.10;;
39300;SDS011;25019;42.626;23.380;2023-05-16T02:24:46;16.03;;;13.47;;
39300;SDS011;25019;42.626;23.380;2023-05-16T02:27:11;15.07;;;12.80;;
39300;SDS011;25019;42.626;23.380;2023-05-16T02:29:37;14.37;;;12.33;;
39300;SDS011;25019;42.626;23.380;2023-05-16T02:32:02;14.37;;;12.83;;
39300;SDS011;25019;42.626;23.380;2023-05-16T02:34:29;14.70;;;13.30;;
39300;SDS011;25019;42.626;23.380;2023-05-16T02:36:54;14.87;;;13.37;;
39300;SDS011;25019;42.626;23.380;2023-05-16T02:39:20;15.00;;;12.77;;
39300;SDS011;25019;42.626;23.380;2023-05-16T02:41:49;13.47;;;12.03;;
39300;SDS011;25019;42.626;23.380;2023-05-16T02:44:15;14.80;;;12.70;;
39300;SDS011;25019;42.626;23.380;2023-05-16T02:46:40;17.43;;;13.53;;
39300;SDS011;25019;42.626;23.380;2023-05-16T02:49:06;16.10;;;13.53;;
39300;SDS011;25019;42.626;23.380;2023-05-16T02:51:31;13.90;;;12.40;;
39300;SDS011;25019;42.626;23.380;2023-05-16T02:53:57;18.33;;;13.60;;
39300;SDS011;25019;42.626;23.380;2023-05-16T02:56:26;16.60;;;13.33;;
39300;SDS011;25019;42.626;23.380;2023-05-16T02:58:52;16.70;;;13.47;;
39300;SDS011;25019;42.626;23.380;2023-05-16T03:01:18;15.77;;;13.07;;
39300;SDS011;25019;42.626;23.380;2023-05-16T03:03:44;14.40;;;12.83;;
39300;SDS011;25019;42.626;23.380;2023-05-16T03:06:10;15.03;;;13.13;;
39300;SDS011;25019;42.626;23.380;2023-05-16T03:08:36;14.87;;;13.37;;
39300;SDS011;25019;42.626;23.380;2023-05-16T03:11:02;18.23;;;13.70;;
39300;SDS011;25019;42.626;23.380;2023-05-16T03:13:27;16.03;;;13.13;;
39300;SDS011;25019;42.626;23.380;2023-05-16T03:15:57;14.20;;;12.80;;
39300;SDS011;25019;42.626;23.380;2023-05-16T03:18:22;14.33;;;12.53;;
39300;SDS011;25019;42.626;23.380;2023-05-16T03:20:48;15.30;;;13.63;;
39300;SDS011;25019;42.626;23.380;2023-05-16T03:23:14;18.63;;;14.00;;
39300;SDS011;25019;42.626;23.380;2023-05-16T03:25:39;16.57;;;13.30;;
39300;SDS011;25019;42.626;23.380;2023-05-16T03:28:07;15.23;;;13.53;;
39300;SDS011;25019;42.626;23.380;2023-05-16T03:30:33;14.80;;;13.30;;
39300;SDS011;25019;42.626;23.380;2023-05-16T03:32:59;16.17;;;13.87;;
39300;SDS011;25019;42.626;23.380;2023-05-16T03:35:25;16.97;;;13.33;;
39300;SDS011;25019;42.626;23.380;2023-05-16T03:37:52;16.07;;;13.50;;
39300;SDS011;25019;42.626;23.380;2023-05-16T03:40:17;15.70;;;14.03;;
39300;SDS011;25019;42.626;23.380;2023-05-16T03:42:43;14.83;;;13.23;;
39300;SDS011;25019;42.626;23.380;2023-05-16T03:45:09;17.87;;;13.77;;
39300;SDS011;25019;42.626;23.380;2023-05-16T03:47:35;15.73;;;14.13;;
39300;SDS011;25019;42.626;23.380;2023-05-16T03:50:01;16.80;;;14.27;;
39300;SDS011;25019;42.626;23.380;2023-05-16T03:52:27;15.73;;;14.07;;
39300;SDS011;25019;42.626;23.380;2023-05-16T03:54:53;16.83;;;15.03;;
39300;SDS011;25019;42.626;23.380;2023-05-16T03:57:18;15.90;;;14.17;;
39300;SDS011;25019;42.626;23.380;2023-05-16T03:59:44;18.27;;;13.93;;
39300;SDS011;25019;42.626;23.380;2023-05-16T04:02:10;16.03;;;14.17;;
39300;SDS011;25019;42.626;23.380;2023-05-16T04:04:35;18.30;;;14.53;;
39300;SDS011;25019;42.626;23.380;2023-05-16T04:07:01;16.80;;;15.00;;
39300;SDS011;25019;42.626;23.380;2023-05-16T04:09:27;18.50;;;15.83;;
39300;SDS011;25019;42.626;23.380;2023-05-16T04:11:52;18.50;;;15.03;;
39300;SDS011;25019;42.626;23.380;2023-05-16T04:14:21;21.20;;;15.70;;
39300;SDS011;25019;42.626;23.380;2023-05-16T04:16:47;16.70;;;15.00;;
39300;SDS011;25019;42.626;23.380;2023-05-16T04:19:13;19.13;;;14.97;;
39300;SDS011;25019;42.626;23.380;2023-05-16T04:21:38;15.93;;;13.03;;
39300;SDS011;25019;42.626;23.380;2023-05-16T04:24:04;17.10;;;13.97;;
39300;SDS011;25019;42.626;23.380;2023-05-16T04:26:31;14.97;;;13.23;;
39300;SDS011;25019;42.626;23.380;2023-05-16T04:28:56;15.87;;;14.13;;
39300;SDS011;25019;42.626;23.380;2023-05-16T04:31:23;16.10;;;13.40;;
39300;SDS011;25019;42.626;23.380;2023-05-16T04:33:49;15.53;;;13.17;;
39300;SDS011;25019;42.626;23.380;2023-05-16T04:36:15;16.40;;;13.23;;
39300;SDS011;25019;42.626;23.380;2023-05-16T04:38:41;15.37;;;13.67;;
39300;SDS011;25019;42.626;23.380;2023-05-16T04:41:07;14.40;;;12.40;;
39300;SDS011;25019;42.626;23.380;2023-05-16T04:43:32;16.60;;;12.97;;
39300;SDS011;25019;42.626;23.380;2023-05-16T04:45:58;15.40;;;12.17;;
39300;SDS011;25019;42.626;23.380;2023-05-16T04:48:24;14.20;;;12.17;;
39300;SDS011;25019;42.626;23.380;2023-05-16T04:50:49;16.80;;;12.83;;
39300;SDS011;25019;42.626;23.380;2023-05-16T04:53:16;15.67;;;12.80;;
39300;SDS011;25019;42.626;23.380;2023-05-16T04:55:45;15.87;;;12.10;;
39300;SDS011;25019;42.626;23.380;2023-05-16T04:58:10;14.90;;;13.00;;
39300;SDS011;25019;42.626;23.380;2023-05-16T05:00:37;14.63;;;12.93;;
39300;SDS011;25019;42.626;23.380;2023-05-16T05:03:03;15.30;;;12.70;;
39300;SDS011;25019;42.626;23.380;2023-05-16T05:05:29;14.53;;;12.97;;
39300;SDS011;25019;42.626;23.380;2023-05-16T05:07:56;14.43;;;12.93;;
39300;SDS011;25019;42.626;23.380;2023-05-16T05:10:22;15.47;;;11.70;;
39300;SDS011;25019;42.626;23.380;2023-05-16T05:12:48;15.23;;;12.53;;
39300;SDS011;25019;42.626;23.380;2023-05-16T05:15:13;14.20;;;12.50;;
39300;SDS011;25019;42.626;23.380;2023-05-16T05:17:39;15.63;;;11.80;;
39300;SDS011;25019;42.626;23.380;2023-05-16T05:20:05;13.40;;;12.00;;
39300;SDS011;25019;42.626;23.380;2023-05-16T05:22:31;15.17;;;11.43;;
39300;SDS011;25019;42.626;23.380;2023-05-16T05:24:57;16.53;;;12.07;;
39300;SDS011;25019;42.626;23.380;2023-05-16T05:27:23;16.57;;;11.67;;
39300;SDS011;25019;42.626;23.380;2023-05-16T05:29:49;15.27;;;11.67;;
39300;SDS011;25019;42.626;23.380;2023-05-16T05:32:15;13.37;;;10.57;;
39300;SDS011;25019;42.626;23.380;2023-05-16T05:34:41;12.30;;;10.10;;
39300;SDS011;25019;42.626;23.380;2023-05-16T05:37:06;15.77;;;11.33;;
39300;SDS011;25019;42.626;23.380;2023-05-16T05:39:32;13.43;;;10.87;;
39300;SDS011;25019;42.626;23.380;2023-05-16T05:41:57;13.70;;;10.57;;
39300;SDS011;25019;42.626;23.380;2023-05-16T05:44:23;15.17;;;10.50;;
39300;SDS011;25019;42.626;23.380;2023-05-16T05:46:48;11.57;;;10.37;;
39300;SDS011;25019;42.626;23.380;2023-05-16T05:49:14;15.20;;;11.07;;
39300;SDS011;25019;42.626;23.380;2023-05-16T05:51:40;13.50;;;10.50;;
39300;SDS011;25019;42.626;23.380;2023-05-16T05:54:06;13.13;;;10.20;;
39300;SDS011;25019;42.626;23.380;2023-05-16T05:56:32;12.23;;;10.90;;
39300;SDS011;25019;42.626;23.380;2023-05-16T05:58:58;15.20;;;11.03;;
39300;SDS011;25019;42.626;23.380;2023-05-16T06:01:24;14.53;;;10.80;;
39300;SDS011;25019;42.626;23.380;2023-05-16T06:03:50;15.70;;;10.93;;
39300;SDS011;25019;42.626;23.380;2023-05-16T06:06:16;15.53;;;10.83;;
39300;SDS011;25019;42.626;23.380;2023-05-16T06:08:42;14.70;;;11.27;;
39300;SDS011;25019;42.626;23.380;2023-05-16T06:11:07;16.50;;;10.57;;
39300;SDS011;25019;42.626;23.380;2023-05-16T06:13:33;12.33;;;11.03;;
39300;SDS011;25019;42.626;23.380;2023-05-16T06:15:59;12.43;;;10.43;;
39300;SDS011;25019;42.626;23.380;2023-05-16T06:18:24;12.80;;;11.03;;
39300;SDS011;25019;42.626;23.380;2023-05-16T06:20:51;13.70;;;10.77;;
39300;SDS011;25019;42.626;23.380;2023-05-16T06:23:17;13.07;;;10.57;;
39300;SDS011;25019;42.626;23.380;2023-05-16T06:25:42;16.67;;;10.80;;
39300;SDS011;25019;42.626;23.380;2023-05-16T06:28:08;15.90;;;10.60;;
39300;SDS011;25019;42.626;23.380;2023-05-16T06:30:34;13.43;;;11.00;;
39300;SDS011;25019;42.626;23.380;2023-05-16T06:32:59;12.00;;;10.50;;
39300;SDS011;25019;42.626;23.380;2023-05-16T06:35:25;12.47;;;9.67;;
39300;SDS011;25019;42.626;23.380;2023-05-16T06:37:50;13.20;;;11.20;;
39300;SDS011;25019;42.626;23.380;2023-05-16T06:40:16;12.30;;;10.03;;
39300;SDS011;25019;42.626;23.380;2023-05-16T06:42:42;11.47;;;10.03;;
39300;SDS011;25019;42.626;23.380;2023-05-16T06:45:07;14.10;;;9.60;;
39300;SDS011;25019;42.626;23.380;2023-05-16T06:47:34;12.17;;;9.60;;
39300;SDS011;25019;42.626;23.380;2023-05-16T06:50:00;10.37;;;8.80;;
39300;SDS011;25019;42.626;23.380;2023-05-16T06:52:26;11.73;;;9.00;;
39300;SDS011;25019;42.626;23.380;2023-05-16T06:54:52;11.43;;;9.57;;
39300;SDS011;25019;42.626;23.380;2023-05-16T06:57:18;14.10;;;9.10;;
39300;SDS011;25019;42.626;23.380;2023-05-16T06:59:43;12.67;;;8.97;;
39300;SDS011;25019;42.626;23.380;2023-05-16T07:02:09;11.50;;;8.40;;
39300;SDS011;25019;42.626;23.380;2023-05-16T07:04:35;12.37;;;8.63;;
39300;SDS011;25019;42.626;23.380;2023-05-16T07:07:02;10.80;;;9.70;;
39300;SDS011;25019;42.626;23.380;2023-05-16T07:09:28;13.37;;;9.03;;
39300;SDS011;25019;42.626;23.380;2023-05-16T07:11:54;12.20;;;9.23;;
39300;SDS011;25019;42.626;23.380;2023-05-16T07:14:19;12.23;;;9.27;;
39300;SDS011;25019;42.626;23.380;2023-05-16T07:16:45;13.00;;;8.70;;
39300;SDS011;25019;42.626;23.380;2023-05-16T07:19:11;10.10;;;7.83;;
39300;SDS011;25019;42.626;23.380;2023-05-16T07:21:36;12.00;;;8.77;;
39300;SDS011;25019;42.626;23.380;2023-05-16T07:24:02;14.97;;;10.33;;
39300;SDS011;25019;42.626;23.380;2023-05-16T07:26:27;13.97;;;8.60;;
39300;SDS011;25019;42.626;23.380;2023-05-16T07:28:53;11.07;;;9.67;;
39300;SDS011;25019;42.626;23.380;2023-05-16T07:31:19;14.70;;;9.50;;
39300;SDS011;25019;42.626;23.380;2023-05-16T07:33:45;11.50;;;8.77;;
39300;SDS011;25019;42.626;23.380;2023-05-16T07:36:13;10.60;;;9.50;;
39300;SDS011;25019;42.626;23.380;2023-05-16T07:38:39;11.87;;;9.57;;
39300;SDS011;25019;42.626;23.380;2023-05-16T07:41:04;12.77;;;9.40;;
39300;SDS011;25019;42.626;23.380;2023-05-16T07:43:30;15.63;;;9.70;;
39300;SDS011;25019;42.626;23.380;2023-05-16T07:45:59;13.57;;;9.63;;
39300;SDS011;25019;42.626;23.380;2023-05-16T07:48:28;11.67;;;9.13;;
39300;SDS011;25019;42.626;23.380;2023-05-16T07:50:53;20.27;;;9.80;;
39300;SDS011;25019;42.626;23.380;2023-05-16T07:53:19;9.80;;;8.80;;
39300;SDS011;25019;42.626;23.380;2023-05-16T07:55:46;18.30;;;9.83;;
39300;SDS011;25019;42.626;23.380;2023-05-16T07:58:12;13.53;;;10.00;;
39300;SDS011;25019;42.626;23.380;2023-05-16T08:00:37;12.30;;;9.93;;
39300;SDS011;25019;42.626;23.380;2023-05-16T08:03:03;13.47;;;10.83;;
39300;SDS011;25019;42.626;23.380;2023-05-16T08:05:29;12.83;;;9.37;;
39300;SDS011;25019;42.626;23.380;2023-05-16T08:07:54;11.80;;;9.43;;
39300;SDS011;25019;42.626;23.380;2023-05-16T08:10:20;14.63;;;9.13;;
39300;SDS011;25019;42.626;23.380;2023-05-16T08:12:47;10.10;;;8.90;;
39300;SDS011;25019;42.626;23.380;2023-05-16T08:15:13;11.80;;;9.63;;
39300;SDS011;25019;42.626;23.380;2023-05-16T08:17:38;11.20;;;7.63;;
39300;SDS011;25019;42.626;23.380;2023-05-16T08:20:04;10.90;;;8.07;;
39300;SDS011;25019;42.626;23.380;2023-05-16T08:22:30;9.77;;;8.50;;
39300;SDS011;25019;42.626;23.380;2023-05-16T08:24:57;10.33;;;7.93;;
39300;SDS011;25019;42.626;23.380;2023-05-16T08:27:25;12.70;;;8.30;;
39300;SDS011;25019;42.626;23.380;2023-05-16T08:29:51;10.17;;;8.17;;
39300;SDS011;25019;42.626;23.380;2023-05-16T08:32:16;9.63;;;7.70;;
39300;SDS011;25019;42.626;23.380;2023-05-16T08:34:42;10.60;;;7.37;;
39300;SDS011;25019;42.626;23.380;2023-05-16T08:37:07;10.17;;;7.40;;
39300;SDS011;25019;42.626;23.380;2023-05-16T08:39:34;9.43;;;7.40;;
39300;SDS011;25019;42.626;23.380;2023-05-16T08:42:00;9.83;;;7.43;;
39300;SDS011;25019;42.626;23.380;2023-05-16T08:44:27;12.37;;;7.77;;
39300;SDS011;25019;42.626;23.380;2023-05-16T08:46:53;12.87;;;7.10;;
39300;SDS011;25019;42.626;23.380;2023-05-16T08:49:19;12.57;;;7.30;;
39300;SDS011;25019;42.626;23.380;2023-05-16T08:51:46;8.20;;;6.30;;
39300;SDS011;25019;42.626;23.380;2023-05-16T08:54:13;9.30;;;7.30;;
39300;SDS011;25019;42.626;23.380;2023-05-16T08:56:40;10.30;;;6.17;;
39300;SDS011;25019;42.626;23.380;2023-05-16T08:59:06;13.53;;;7.07;;
39300;SDS011;25019;42.626;23.380;2023-05-16T09:01:33;11.97;;;6.70;;
39300;SDS011;25019;42.626;23.380;2023-05-16T09:03:59;13.33;;;6.37;;
39300;SDS011;25019;42.626;23.380;2023-05-16T09:06:28;10.53;;;6.60;;
39300;SDS011;25019;42.626;23.380;2023-05-16T09:08:53;10.50;;;6.70;;
39300;SDS011;25019;42.626;23.380;2023-05-16T09:11:19;11.73;;;6.37;;
39300;SDS011;25019;42.626;23.380;2023-05-16T09:13:46;10.23;;;6.10;;
39300;SDS011;25019;42.626;23.380;2023-05-16T09:16:16;14.10;;;6.73;;
39300;SDS011;25019;42.626;23.380;2023-05-16T09:18:43;7.07;;;6.37;;
39300;SDS011;25019;42.626;23.380;2023-05-16T09:21:11;12.60;;;6.70;;
39300;SDS011;25019;42.626;23.380;2023-05-16T09:23:37;13.20;;;6.80;;
39300;SDS011;25019;42.626;23.380;2023-05-16T09:26:04;11.23;;;7.33;;
39300;SDS011;25019;42.626;23.380;2023-05-16T09:28:32;9.93;;;6.87;;
39300;SDS011;25019;42.626;23.380;2023-05-16T09:30:58;8.43;;;6.67;;
39300;SDS011;25019;42.626;23.380;2023-05-16T09:33:27;13.03;;;6.70;;
39300;SDS011;25019;42.626;23.380;2023-05-16T09:35:54;10.40;;;6.53;;
39300;SDS011;25019;42.626;23.380;2023-05-16T09:38:21;9.50;;;6.80;;
39300;SDS011;25019;42.626;23.380;2023-05-16T09:40:47;8.63;;;6.83;;
39300;SDS011;25019;42.626;23.380;2023-05-16T09:43:14;14.73;;;7.60;;
39300;SDS011;25019;42.626;23.380;2023-05-16T09:45:44;10.77;;;7.03;;
39300;SDS011;25019;42.626;23.380;2023-05-16T09:48:12;9.67;;;6.90;;
39300;SDS011;25019;42.626;23.380;2023-05-16T09:50:39;11.83;;;7.70;;
39300;SDS011;25019;42.626;23.380;2023-05-16T09:53:10;10.70;;;7.37;;
39300;SDS011;25019;42.626;23.380;2023-05-16T09:55:37;8.77;;;7.27;;
39300;SDS011;25019;42.626;23.380;2023-05-16T09:58:03;9.47;;;6.70;;
39300;SDS011;25019;42.626;23.380;2023-05-16T10:00:30;8.67;;;7.27;;
39300;SDS011;25019;42.626;23.380;2023-05-16T10:02:57;12.47;;;7.50;;
39300;SDS011;25019;42.626;23.380;2023-05-16T10:05:27;11.40;;;7.80;;
39300;SDS011;25019;42.626;23.380;2023-05-16T10:07:57;11.53;;;7.30;;
39300;SDS011;25019;42.626;23.380;2023-05-16T10:10:23;11.37;;;7.23;;
39300;SDS011;25019;42.626;23.380;2023-05-16T10:12:50;10.90;;;7.23;;
39300;SDS011;25019;42.626;23.380;2023-05-16T10:15:16;9.40;;;7.47;;
39300;SDS011;25019;42.626;23.380;2023-05-16T10:17:42;9.60;;;7.53;;
39300;SDS011;25019;42.626;23.380;2023-05-16T10:20:11;11.63;;;7.13;;
39300;SDS011;25019;42.626;23.380;2023-05-16T10:22:42;11.80;;;7.43;;
39300;SDS011;25019;42.626;23.380;2023-05-16T10:25:24;12.33;;;8.13;;
39300;SDS011;25019;42.626;23.380;2023-05-16T10:28:05;12.30;;;7.70;;
39300;SDS011;25019;42.626;23.380;2023-05-16T10:30:32;9.37;;;7.97;;
39300;SDS011;25019;42.626;23.380;2023-05-16T10:33:00;9.13;;;7.40;;
39300;SDS011;25019;42.626;23.380;2023-05-16T10:35:27;10.27;;;7.43;;
39300;SDS011;25019;42.626;23.380;2023-05-16T10:37:52;10.77;;;7.03;;
39300;SDS011;25019;42.626;23.380;2023-05-16T10:40:19;9.57;;;8.00;;
39300;SDS011;25019;42.626;23.380;2023-05-16T10:45:20;9.27;;;7.43;;
39300;SDS011;25019;42.626;23.380;2023-05-16T10:48:05;9.83;;;8.10;;
39300;SDS011;25019;42.626;23.380;2023-05-16T10:50:33;9.77;;;7.50;;
39300;SDS011;25019;42.626;23.380;2023-05-16T11:01:15;9.80;;;8.40;;
39300;SDS011;25019;42.626;23.380;2023-05-16T11:06:22;12.90;;;7.30;;
39300;SDS011;25019;42.626;23.380;2023-05-16T11:14:08;12.50;;;8.10;;
39300;SDS011;25019;42.626;23.380;2023-05-16T11:16:43;11.93;;;6.43;;
39300;SDS011;25019;42.626;23.380;2023-05-16T11:19:13;10.23;;;6.17;;
39300;SDS011;25019;42.626;23.380;2023-05-16T11:22:04;12.70;;;6.57;;
39300;SDS011;25019;42.626;23.380;2023-05-16T11:24:31;9.20;;;6.80;;
39300;SDS011;25019;42.626;23.380;2023-05-16T11:26:59;12.57;;;6.63;;
39300;SDS011;25019;42.626;23.380;2023-05-16T11:29:34;9.73;;;6.77;;
39300;SDS011;25019;42.626;23.380;2023-05-16T11:32:04;11.60;;;6.90;;
39300;SDS011;25019;42.626;23.380;2023-05-16T11:34:30;15.17;;;7.40;;
39300;SDS011;25019;42.626;23.380;2023-05-16T11:36:56;9.03;;;6.33;;
39300;SDS011;25019;42.626;23.380;2023-05-16T11:39:24;12.87;;;7.00;;
39300;SDS011;25019;42.626;23.380;2023-05-16T11:41:50;9.73;;;7.10;;
39300;SDS011;25019;42.626;23.380;2023-05-16T11:44:16;15.33;;;7.30;;
39300;SDS011;25019;42.626;23.380;2023-05-16T11:46:41;13.37;;;7.27;;
39300;SDS011;25019;42.626;23.380;2023-05-16T11:49:10;12.87;;;6.83;;
39300;SDS011;25019;42.626;23.380;2023-05-16T11:51:37;9.20;;;6.87;;
39300;SDS011;25019;42.626;23.380;2023-05-16T11:54:03;7.87;;;6.73;;
39300;SDS011;25019;42.626;23.380;2023-05-16T11:56:29;8.47;;;6.90;;
39300;SDS011;25019;42.626;23.380;2023-05-16T11:58:57;11.90;;;7.47;;
39300;SDS011;25019;42.626;23.380;2023-05-16T12:01:24;12.87;;;7.03;;
39300;SDS011;25019;42.626;23.380;2023-05-16T12:03:56;11.53;;;6.40;;
39300;SDS011;25019;42.626;23.380;2023-05-16T12:06:22;9.97;;;6.90;;
39300;SDS011;25019;42.626;23.380;2023-05-16T12:08:51;7.57;;;6.03;;
39300;SDS011;25019;42.626;23.380;2023-05-16T12:11:17;18.77;;;7.00;;
39300;SDS011;25019;42.626;23.380;2023-05-16T12:13:43;8.57;;;6.60;;
39300;SDS011;25019;42.626;23.380;2023-05-16T12:16:10;14.50;;;6.70;;
39300;SDS011;25019;42.626;23.380;2023-05-16T12:18:37;11.57;;;6.73;;
39300;SDS011;25019;42.626;23.380;2023-05-16T12:21:03;8.00;;;6.73;;
39300;SDS011;25019;42.626;23.380;2023-05-16T12:23:31;8.80;;;6.27;;
39300;SDS011;25019;42.626;23.380;2023-05-16T12:25:57;10.53;;;7.07;;
39300;SDS011;25019;42.626;23.380;2023-05-16T12:28:29;11.87;;;7.00;;
39300;SDS011;25019;42.626;23.380;2023-05-16T12:30:58;8.13;;;6.60;;
39300;SDS011;25019;42.626;23.380;2023-05-16T12:33:23;8.00;;;6.20;;
39300;SDS011;25019;42.626;23.380;2023-05-16T12:35:49;8.90;;;6.57;;
39300;SDS011;25019;42.626;23.380;2023-05-16T12:38:18;13.83;;;6.83;;
39300;SDS011;25019;42.626;23.380;2023-05-16T12:40:44;12.53;;;6.70;;
39300;SDS011;25019;42.626;23.380;2023-05-16T12:43:12;11.50;;;6.93;;
39300;SDS011;25019;42.626;23.380;2023-05-16T12:45:39;8.90;;;6.23;;
39300;SDS011;25019;42.626;23.380;2023-05-16T12:48:12;9.73;;;6.00;;
39300;SDS011;25019;42.626;23.380;2023-05-16T12:50:38;10.80;;;6.27;;
39300;SDS011;25019;42.626;23.380;2023-05-16T12:53:09;10.20;;;6.17;;
39300;SDS011;25019;42.626;23.380;2023-05-16T12:55:36;8.97;;;6.00;;
39300;SDS011;25019;42.626;23.380;2023-05-16T12:58:03;15.13;;;6.87;;
39300;SDS011;25019;42.626;23.380;2023-05-16T13:00:28;10.67;;;6.30;;
39300;SDS011;25019;42.626;23.380;2023-05-16T13:02:55;14.67;;;7.30;;
39300;SDS011;25019;42.626;23.380;2023-05-16T13:05:21;12.13;;;6.43;;
39300;SDS011;25019;42.626;23.380;2023-05-16T13:07:48;12.27;;;7.03;;
39300;SDS011;25019;42.626;23.380;2023-05-16T13:10:16;9.03;;;6.13;;
39300;SDS011;25019;42.626;23.380;2023-05-16T13:12:42;8.03;;;6.27;;
39300;SDS011;25019;42.626;23.380;2023-05-16T13:15:09;10.43;;;7.20;;
39300;SDS011;25019;42.626;23.380;2023-05-16T13:17:36;13.27;;;7.70;;
39300;SDS011;25019;42.626;23.380;2023-05-16T13:20:04;10.13;;;6.67;;
39300;SDS011;25019;42.626;23.380;2023-05-16T13:22:37;13.30;;;6.97;;
39300;SDS011;25019;42.626;23.380;2023-05-16T13:25:03;11.40;;;6.87;;
39300;SDS011;25019;42.626;23.380;2023-05-16T13:27:30;17.13;;;7.23;;
39300;SDS011;25019;42.626;23.380;2023-05-16T13:29:57;14.17;;;6.83;;
39300;SDS011;25019;42.626;23.380;2023-05-16T13:32:23;13.17;;;7.00;;
39300;SDS011;25019;42.626;23.380;2023-05-16T13:34:49;9.47;;;6.70;;
39300;SDS011;25019;42.626;23.380;2023-05-16T13:37:15;12.37;;;7.80;;
39300;SDS011;25019;42.626;23.380;2023-05-16T13:39:43;12.13;;;7.17;;
39300;SDS011;25019;42.626;23.380;2023-05-16T13:42:08;12.77;;;7.07;;
39300;SDS011;25019;42.626;23.380;2023-05-16T13:44:34;14.73;;;7.50;;
39300;SDS011;25019;42.626;23.380;2023-05-16T13:47:00;12.47;;;7.70;;
39300;SDS011;25019;42.626;23.380;2023-05-16T13:49:26;15.27;;;7.37;;
39300;SDS011;25019;42.626;23.380;2023-05-16T13:51:52;13.30;;;7.73;;
39300;SDS011;25019;42.626;23.380;2023-05-16T13:54:18;15.13;;;7.77;;
39300;SDS011;25019;42.626;23.380;2023-05-16T13:56:44;15.00;;;7.90;;
39300;SDS011;25019;42.626;23.380;2023-05-16T13:59:10;9.37;;;7.40;;
39300;SDS011;25019;42.626;23.380;2023-05-16T14:01:35;17.13;;;8.23;;
39300;SDS011;25019;42.626;23.380;2023-05-16T14:04:01;16.77;;;8.40;;
39300;SDS011;25019;42.626;23.380;2023-05-16T14:06:27;17.47;;;8.83;;
39300;SDS011;25019;42.626;23.380;2023-05-16T14:08:53;19.93;;;9.00;;
39300;SDS011;25019;42.626;23.380;2023-05-16T14:11:19;15.47;;;9.03;;
39300;SDS011;25019;42.626;23.380;2023-05-16T14:13:47;19.23;;;9.87;;
39300;SDS011;25019;42.626;23.380;2023-05-16T14:16:13;15.83;;;9.87;;
39300;SDS011;25019;42.626;23.380;2023-05-16T14:18:39;19.23;;;9.67;;
39300;SDS011;25019;42.626;23.380;2023-05-16T14:21:04;19.90;;;10.37;;
39300;SDS011;25019;42.626;23.380;2023-05-16T14:23:30;14.47;;;10.13;;
39300;SDS011;25019;42.626;23.380;2023-05-16T14:25:56;18.67;;;9.97;;
39300;SDS011;25019;42.626;23.380;2023-05-16T14:28:21;14.13;;;10.17;;
39300;SDS011;25019;42.626;23.380;2023-05-16T14:30:47;17.13;;;11.17;;
39300;SDS011;25019;42.626;23.380;2023-05-16T14:33:13;16.83;;;11.17;;
39300;SDS011;25019;42.626;23.380;2023-05-16T14:35:39;15.87;;;10.73;;
39300;SDS011;25019;42.626;23.380;2023-05-16T14:38:05;17.67;;;11.73;;
39300;SDS011;25019;42.626;23.380;2023-05-16T14:40:31;17.87;;;11.93;;
39300;SDS011;25019;42.626;23.380;2023-05-16T14:42:58;15.90;;;11.70;;
39300;SDS011;25019;42.626;23.380;2023-05-16T14:45:24;20.73;;;12.40;;
39300;SDS011;25019;42.626;23.380;2023-05-16T14:47:50;19.77;;;11.80;;
39300;SDS011;25019;42.626;23.380;2023-05-16T14:50:16;17.27;;;12.53;;
39300;SDS011;25019;42.626;23.380;2023-05-16T14:52:42;15.53;;;11.03;;
39300;SDS011;25019;42.626;23.380;2023-05-16T14:55:08;21.73;;;11.73;;
39300;SDS011;25019;42.626;23.380;2023-05-16T14:57:33;23.00;;;12.23;;
39300;SDS011;25019;42.626;23.380;2023-05-16T15:00:00;19.77;;;12.33;;
39300;SDS011;25019;42.626;23.380;2023-05-16T15:02:26;24.67;;;13.83;;
39300;SDS011;25019;42.626;23.380;2023-05-16T15:04:51;18.77;;;12.20;;